Terminal Aerodrome Forecast
Issued by NWS Sioux Falls, SD

Home | Current Version | Previous Version | Text Only | Print | Product List | Glossary On
Versions: 1 2 3 4 5 6 7 8 9 10 11 12 13 14
000
FTUS43 KFSD 221737
TAFHON
TAF
KHON 221737Z 2218/2318 33009KT P6SM -SHRA OVC050
     FM222000 33009KT P6SM VCSH BKN060
     FM222200 35012KT P6SM BKN070
     FM230300 34008KT P6SM BKN070
     FM230800 32007KT P6SM OVC030
     FM231200 34012KT P6SM OVC020=

USA.gov is the U.S. government's official web portal to all federal, state and local government web resources and services.